Time;durP1;ratioP1;P1;durP2;ratioP2;P2;SDS_P1;SDS_P2;PMS_P1;PMS_P2;Temp;Humidity;BMP_temperature;BMP_pressure;BME280_temperature;BME280_humidity;BME280_pressure;Samples;Min_cycle;Max_cycle;Signal;HPM_P1;HPM_P2
2024/03/08 00:02:09;;;;;;;9.88;8.02;;;5.80;99.90;;;;;;5000104;28;20509;-81
2024/03/08 00:04:36;;;;;;;9.88;7.75;;;5.80;99.90;;;;;;4986066;28;20559;-81
2024/03/08 00:07:03;;;;;;;9.93;7.40;;;5.80;99.90;;;;;;4969752;28;20050;-81
2024/03/08 00:09:31;;;;;;;10.90;8.93;;;5.80;99.90;;;;;;5002504;28;20046;-81
2024/03/08 00:11:57;;;;;;;8.95;7.35;;;5.80;1.00;;;;;;5001662;28;20050;-81
2024/03/08 00:14:26;;;;;;;12.35;8.77;;;5.80;1.00;;;;;;4985673;28;20054;-81
2024/03/08 00:16:54;;;;;;;7.95;7.03;;;5.80;1.00;;;;;;5000347;28;20050;-81
2024/03/08 00:19:21;;;;;;;9.38;7.63;;;5.80;44.50;;;;;;5003916;28;20054;-81
2024/03/08 00:21:48;;;;;;;7.10;5.65;;;5.80;40.70;;;;;;4984538;28;20057;-81
2024/03/08 00:24:16;;;;;;;8.60;6.50;;;5.80;67.70;;;;;;4996545;28;20501;-81
2024/03/08 00:26:44;;;;;;;8.73;6.80;;;5.80;99.90;;;;;;4996171;28;20323;-82
2024/03/08 00:29:11;;;;;;;10.90;7.88;;;5.70;3.80;;;;;;5002598;28;20129;-81
2024/03/08 00:31:38;;;;;;;9.70;6.72;;;5.70;94.90;;;;;;4982967;28;20069;-82
2024/03/08 00:34:06;;;;;;;9.85;7.22;;;5.70;99.90;;;;;;4981423;28;20046;-82
2024/03/08 00:36:34;;;;;;;7.13;5.97;;;5.70;99.90;;;;;;4970376;28;20061;-83
2024/03/08 00:39:01;;;;;;;9.10;6.90;;;5.70;99.90;;;;;;4986996;28;20049;-83
2024/03/08 00:41:29;;;;;;;9.48;7.97;;;5.70;99.90;;;;;;4986572;28;20049;-82
2024/03/08 00:43:56;;;;;;;8.52;6.75;;;5.70;99.90;;;;;;5000757;28;20141;-81
2024/03/08 00:46:23;;;;;;;8.02;6.78;;;5.70;1.00;;;;;;4999560;28;20038;-82
2024/03/08 00:48:50;;;;;;;11.77;9.23;;;5.70;1.00;;;;;;4985840;28;20058;-83
2024/03/08 00:51:18;;;;;;;12.25;9.02;;;5.70;1.00;;;;;;4985574;28;20589;-83
2024/03/08 00:53:46;;;;;;;11.63;8.68;;;5.70;1.00;;;;;;4980796;28;20058;-83
2024/03/08 00:56:14;;;;;;;10.73;8.98;;;5.70;17.20;;;;;;4968429;28;20152;-83
2024/03/08 00:58:42;;;;;;;10.88;8.93;;;5.70;3.40;;;;;;4984335;28;20046;-82
2024/03/08 01:01:09;;;;;;;10.20;8.65;;;5.70;1.00;;;;;;5001401;28;20127;-83
2024/03/08 01:03:37;;;;;;;9.27;7.85;;;5.70;1.00;;;;;;4997187;28;20045;-83
2024/03/08 01:06:04;;;;;;;7.82;6.15;;;5.70;1.00;;;;;;5002733;28;20069;-83
2024/03/08 01:08:31;;;;;;;7.85;6.20;;;5.70;1.00;;;;;;5001917;28;20502;-82
2024/03/08 01:11:00;;;;;;;7.63;6.07;;;5.70;1.00;;;;;;4984471;28;20053;-82
2024/03/08 01:13:27;;;;;;;6.75;5.25;;;5.70;99.90;;;;;;5000653;28;20143;-82
2024/03/08 01:15:54;;;;;;;7.20;5.55;;;5.70;99.90;;;;;;4982118;28;20100;-81
2024/03/08 01:18:21;;;;;;;5.72;4.03;;;5.70;99.90;;;;;;5001410;28;20064;-82
2024/03/08 01:20:48;;;;;;;6.70;5.13;;;5.70;99.90;;;;;;5000572;28;20053;-82
2024/03/08 01:30:56;;;;;;;6.47;5.78;;;5.60;99.90;;;;;;4997924;28;20468;-76
2024/03/08 01:33:33;;;;;;;7.57;5.32;;;5.60;99.90;;;;;;5002392;28;20049;-76
2024/03/08 01:36:23;;;;;;;6.40;5.07;;;5.60;99.90;;;;;;5002445;28;20439;-76
2024/03/08 01:39:00;;;;;;;6.90;5.93;;;5.60;99.90;;;;;;5001559;28;20088;-76
2024/03/08 01:41:40;;;;;;;6.68;5.47;;;5.60;99.90;;;;;;4992490;28;20146;-76
2024/03/08 01:44:09;;;;;;;7.38;5.97;;;5.60;99.90;;;;;;4984197;28;20141;-76
2024/03/08 01:47:22;;;;;;;9.63;7.63;;;5.50;99.90;;;;;;4998482;28;20050;-76
2024/03/08 01:50:11;;;;;;;6.80;5.78;;;5.50;91.90;;;;;;4999079;28;20511;-75
2024/03/08 01:52:59;;;;;;;7.68;5.28;;;5.50;27.30;;;;;;4992616;28;20042;-75
2024/03/08 01:55:41;;;;;;;5.80;4.57;;;5.50;63.10;;;;;;5000157;28;20073;-75
2024/03/08 01:58:25;;;;;;;6.03;4.90;;;5.40;93.80;;;;;;4994478;28;20110;-75
2024/03/08 02:01:00;;;;;;;6.05;4.78;;;5.50;99.90;;;;;;4998743;28;20056;-75
2024/03/08 02:03:49;;;;;;;7.03;5.22;;;5.40;76.80;;;;;;5001740;28;20050;-75
2024/03/08 02:06:16;;;;;;;6.35;5.03;;;5.40;78.10;;;;;;4980356;28;20214;-75
2024/03/08 02:08:46;;;;;;;7.32;5.93;;;5.40;64.80;;;;;;4983267;28;20054;-75
2024/03/08 02:11:14;;;;;;;8.25;5.78;;;5.30;99.90;;;;;;4981827;28;20070;-75
2024/03/08 02:13:41;;;;;;;7.60;6.13;;;5.30;99.90;;;;;;4982782;28;20061;-74
2024/03/08 02:16:08;;;;;;;7.70;5.63;;;5.30;99.90;;;;;;4982972;28;20058;-75
2024/03/08 02:18:35;;;;;;;7.43;5.80;;;5.30;99.90;;;;;;4981272;28;20057;-75
2024/03/08 02:21:03;;;;;;;7.97;6.22;;;5.30;99.90;;;;;;4972415;28;20054;-75
2024/03/08 02:23:30;;;;;;;6.53;5.35;;;5.30;99.90;;;;;;4966462;28;20378;-75
2024/03/08 02:25:57;;;;;;;8.57;6.72;;;5.30;99.90;;;;;;4967731;28;20506;-76
2024/03/08 02:28:28;;;;;;;7.00;5.57;;;5.20;99.90;;;;;;4992889;28;20056;-76
2024/03/08 02:30:56;;;;;;;7.70;5.75;;;5.20;99.90;;;;;;5001814;28;20049;-75
2024/03/08 02:33:25;;;;;;;7.78;5.97;;;5.20;99.90;;;;;;5016467;28;20575;-75
2024/03/08 02:35:52;;;;;;;7.50;5.15;;;5.20;99.90;;;;;;5023379;28;20053;-75
2024/03/08 02:38:20;;;;;;;9.13;6.93;;;5.20;99.90;;;;;;5021316;28;20053;-75
2024/03/08 02:40:49;;;;;;;7.70;5.75;;;5.20;99.90;;;;;;4990473;28;20440;-75
2024/03/08 02:43:17;;;;;;;7.78;6.18;;;5.10;99.90;;;;;;4999102;28;20053;-75
2024/03/08 02:45:45;;;;;;;8.40;5.82;;;5.10;99.90;;;;;;4993626;28;20615;-75
2024/03/08 02:48:12;;;;;;;7.50;5.35;;;5.10;99.90;;;;;;4990416;28;20041;-76
2024/03/08 02:50:40;;;;;;;7.22;5.57;;;5.10;99.90;;;;;;5003476;28;20057;-75
2024/03/08 02:53:07;;;;;;;7.10;5.53;;;5.10;99.90;;;;;;5013397;28;20500;-75
2024/03/08 02:55:37;;;;;;;7.72;5.40;;;5.00;99.90;;;;;;5018578;28;20530;-75
2024/03/08 02:58:04;;;;;;;8.10;6.30;;;5.00;99.90;;;;;;5015498;28;20059;-75
2024/03/08 03:00:32;;;;;;;7.28;5.53;;;5.00;99.90;;;;;;5012629;28;20045;-75
2024/03/08 03:02:59;;;;;;;7.28;5.25;;;4.90;99.90;;;;;;4987700;28;20081;-75
2024/03/08 03:05:26;;;;;;;7.30;5.55;;;4.90;99.90;;;;;;5004412;28;20382;-75
2024/03/08 03:07:53;;;;;;;7.07;5.22;;;4.90;99.90;;;;;;5011827;28;20480;-75
2024/03/08 03:10:21;;;;;;;6.35;5.03;;;4.90;99.90;;;;;;4992985;28;20097;-75
2024/03/08 03:12:51;;;;;;;5.50;4.05;;;4.90;99.90;;;;;;5001846;28;20046;-76
2024/03/08 03:15:18;;;;;;;4.97;3.85;;;4.90;99.90;;;;;;5006703;28;20053;-75
2024/03/08 03:17:47;;;;;;;5.05;4.10;;;4.80;99.90;;;;;;4996672;28;20042;-75
2024/03/08 03:20:14;;;;;;;4.88;3.78;;;4.90;99.90;;;;;;4988955;28;20132;-75
2024/03/08 03:22:41;;;;;;;5.15;3.88;;;4.80;99.90;;;;;;4997321;28;20057;-75
2024/03/08 03:25:12;;;;;;;5.97;4.25;;;4.80;99.90;;;;;;5007427;28;20054;-75
2024/03/08 03:27:40;;;;;;;6.00;4.25;;;4.70;99.90;;;;;;4997303;28;20124;-75
2024/03/08 03:30:20;;;;;;;5.53;4.25;;;4.70;99.90;;;;;;5006342;28;20496;-74
2024/03/08 03:32:51;;;;;;;4.97;3.72;;;4.70;99.90;;;;;;5002836;28;20132;-75
2024/03/08 03:35:20;;;;;;;3.92;2.97;;;4.70;99.90;;;;;;5023628;28;20053;-75
2024/03/08 03:40:34;;;;;;;5.05;3.22;;;4.60;99.90;;;;;;4996234;28;20404;-74
2024/03/08 03:43:01;;;;;;;4.63;3.53;;;4.60;85.00;;;;;;5001286;28;20053;-75
2024/03/08 03:45:28;;;;;;;4.72;3.85;;;4.60;99.90;;;;;;5010785;28;20118;-75
2024/03/08 03:47:55;;;;;;;6.07;3.92;;;4.50;89.40;;;;;;4996503;28;20053;-75
2024/03/08 03:50:23;;;;;;;5.47;3.80;;;4.50;98.50;;;;;;5007295;28;20053;-74
2024/03/08 03:52:50;;;;;;;5.60;3.47;;;4.60;99.90;;;;;;4991166;28;20085;-74
2024/03/08 03:55:17;;;;;;;5.10;3.83;;;4.50;99.90;;;;;;5014875;28;20061;-75
2024/03/08 03:57:45;;;;;;;4.88;3.72;;;4.50;99.90;;;;;;5010083;28;20060;-75
2024/03/08 04:00:12;;;;;;;4.32;3.50;;;4.50;99.90;;;;;;5002257;28;20042;-74
2024/03/08 04:02:40;;;;;;;6.78;5.03;;;4.50;99.90;;;;;;5006132;28;20049;-74
2024/03/08 04:05:08;;;;;;;7.55;5.70;;;4.50;99.90;;;;;;5015465;28;20053;-74
2024/03/08 04:07:35;;;;;;;5.28;4.32;;;4.50;1.00;;;;;;4991262;28;20045;-74
2024/03/08 04:10:03;;;;;;;8.75;6.63;;;4.50;99.90;;;;;;4984422;28;20056;-75
2024/03/08 04:12:30;;;;;;;8.88;7.63;;;4.50;1.00;;;;;;5011684;28;20057;-75
2024/03/08 04:14:57;;;;;;;7.82;6.63;;;4.50;1.00;;;;;;4991684;28;20057;-74
2024/03/08 04:17:24;;;;;;;8.52;6.47;;;4.50;1.00;;;;;;5000599;28;20077;-75
2024/03/08 04:19:51;;;;;;;7.05;5.63;;;4.60;1.00;;;;;;5009206;28;20073;-75
2024/03/08 04:22:18;;;;;;;9.05;6.25;;;4.60;1.00;;;;;;5018133;28;20046;-75
2024/03/08 04:24:45;;;;;;;7.47;5.07;;;4.60;1.00;;;;;;5002119;28;20058;-75
2024/03/08 04:27:12;;;;;;;7.60;5.88;;;4.60;99.90;;;;;;5000515;28;20065;-75
2024/03/08 04:29:41;;;;;;;8.88;6.80;;;4.60;99.90;;;;;;5004765;28;20431;-75
2024/03/08 04:32:09;;;;;;;7.85;6.40;;;4.60;99.90;;;;;;5008079;28;20054;-76
2024/03/08 04:34:36;;;;;;;6.13;5.05;;;4.60;99.90;;;;;;5024116;28;20042;-75
2024/03/08 04:37:04;;;;;;;8.77;6.07;;;4.50;99.90;;;;;;5021210;28;20057;-74
2024/03/08 04:39:31;;;;;;;7.68;6.05;;;4.50;99.90;;;;;;5007616;28;20050;-74
2024/03/08 04:42:03;;;;;;;7.10;5.60;;;4.50;99.90;;;;;;5024885;28;20107;-74
2024/03/08 04:44:33;;;;;;;;;;;4.50;99.90;;;;;;4994320;28;20041;-74
2024/03/08 04:47:00;;;;;;;5.97;4.95;;;4.50;99.90;;;;;;5017697;28;20286;-74
2024/03/08 04:49:28;;;;;;;7.20;6.03;;;4.50;99.90;;;;;;4998798;28;20073;-74
2024/03/08 04:51:55;;;;;;;8.55;6.55;;;4.50;99.90;;;;;;4992848;28;20463;-74
2024/03/08 04:54:22;;;;;;;9.07;6.50;;;4.50;99.90;;;;;;5003272;28;20080;-74
2024/03/08 04:56:49;;;;;;;8.60;5.95;;;4.50;99.90;;;;;;4995660;28;20049;-75
2024/03/08 04:59:16;;;;;;;6.43;5.20;;;4.50;99.90;;;;;;4990374;28;20042;-74
2024/03/08 05:01:43;;;;;;;7.43;5.22;;;4.50;99.90;;;;;;5002973;28;20552;-74
2024/03/08 05:04:10;;;;;;;6.30;4.95;;;4.50;99.90;;;;;;4989342;28;20053;-74
2024/03/08 05:06:37;;;;;;;7.38;5.45;;;4.50;99.90;;;;;;4975317;28;20049;-75
2024/03/08 05:09:13;;;;;;;5.88;4.35;;;4.50;99.90;;;;;;5018725;28;20081;-75
2024/03/08 05:11:42;;;;;;;5.50;4.15;;;4.50;99.90;;;;;;4998734;28;20050;-75
2024/03/08 05:14:10;;;;;;;6.22;4.13;;;4.50;99.90;;;;;;4993945;28;20072;-75
2024/03/08 05:16:37;;;;;;;5.22;4.05;;;4.50;99.90;;;;;;5000819;28;20542;-75
2024/03/08 05:19:03;;;;;;;6.35;4.03;;;4.40;99.90;;;;;;5009108;28;20511;-75
2024/03/08 05:21:30;;;;;;;4.80;3.55;;;4.40;99.90;;;;;;5017190;28;20061;-75
2024/03/08 05:23:57;;;;;;;6.00;4.13;;;4.40;99.90;;;;;;5022735;28;20041;-75
2024/03/08 05:26:24;;;;;;;5.28;3.58;;;4.40;99.90;;;;;;5022722;28;20055;-75
2024/03/08 05:28:51;;;;;;;4.90;3.50;;;4.30;99.90;;;;;;5021671;28;20061;-75
2024/03/08 05:31:24;;;;;;;4.72;3.53;;;4.30;99.90;;;;;;5022631;28;20058;-75
2024/03/08 05:33:54;;;;;;;4.95;3.58;;;4.30;99.90;;;;;;5004292;28;20049;-75
2024/03/08 05:36:21;;;;;;;5.07;3.63;;;4.30;99.90;;;;;;4985463;28;20073;-75
2024/03/08 05:38:50;;;;;;;4.38;3.15;;;4.30;99.90;;;;;;5006792;28;20054;-74
2024/03/08 05:41:18;;;;;;;4.22;2.90;;;4.30;99.90;;;;;;4990179;28;20045;-74
2024/03/08 05:43:45;;;;;;;3.83;3.28;;;4.30;99.90;;;;;;4996067;28;20061;-74
2024/03/08 05:46:15;;;;;;;4.78;3.67;;;4.30;99.90;;;;;;4976426;28;20053;-74
2024/03/08 05:48:42;;;;;;;4.18;2.90;;;4.20;99.90;;;;;;5006615;28;20534;-74
2024/03/08 05:51:09;;;;;;;5.25;2.83;;;4.20;99.90;;;;;;4994790;28;20140;-75
2024/03/08 05:53:36;;;;;;;4.22;3.03;;;4.20;1.00;;;;;;5013497;28;20056;-75
2024/03/08 05:56:03;;;;;;;3.88;2.80;;;4.20;1.00;;;;;;5006397;28;20052;-75
2024/03/08 05:58:31;;;;;;;4.38;3.05;;;4.20;1.00;;;;;;5009119;28;20041;-74
2024/03/08 06:00:58;;;;;;;4.43;3.38;;;4.20;1.00;;;;;;5001998;28;20063;-74
2024/03/08 06:03:25;;;;;;;4.30;2.97;;;4.20;1.00;;;;;;4984133;28;20100;-74
2024/03/08 06:05:52;;;;;;;5.00;3.28;;;4.20;1.00;;;;;;4977059;28;20099;-74
2024/03/08 06:08:19;;;;;;;5.72;3.75;;;4.10;63.20;;;;;;5004328;28;20049;-74
2024/03/08 06:10:48;;;;;;;6.65;4.50;;;4.10;99.90;;;;;;5006793;28;20135;-74
2024/03/08 06:13:15;;;;;;;6.07;4.20;;;4.10;99.90;;;;;;4995693;28;20137;-74
2024/03/08 06:15:42;;;;;;;5.90;4.07;;;4.20;99.90;;;;;;5001305;28;20125;-74
2024/03/08 06:18:11;;;;;;;7.53;4.70;;;4.10;1.00;;;;;;4976837;28;20053;-74
2024/03/08 06:20:38;;;;;;;8.48;5.97;;;4.20;1.00;;;;;;4991627;28;20053;-75
2024/03/08 06:23:05;;;;;;;6.55;4.57;;;4.30;99.90;;;;;;5010343;28;20389;-74
2024/03/08 06:25:32;;;;;;;9.43;7.25;;;4.20;99.10;;;;;;5001501;28;20062;-74
2024/03/08 06:27:59;;;;;;;11.15;8.65;;;4.30;99.90;;;;;;5013029;28;20053;-74
2024/03/08 06:30:26;;;;;;;12.82;8.57;;;4.30;99.90;;;;;;5009837;28;20084;-74
2024/03/08 06:32:53;;;;;;;8.32;6.63;;;4.30;99.90;;;;;;5008920;28;20053;-74
2024/03/08 06:35:20;;;;;;;10.73;7.35;;;4.30;1.00;;;;;;5006122;28;20053;-74
2024/03/08 06:37:47;;;;;;;10.77;8.52;;;4.40;1.00;;;;;;5014427;28;20060;-74
2024/03/08 06:40:14;;;;;;;9.48;6.95;;;4.40;99.90;;;;;;5011563;28;20057;-76
2024/03/08 06:42:41;;;;;;;11.70;9.20;;;4.40;99.90;;;;;;4993382;28;20058;-74
2024/03/08 06:45:09;;;;;;;16.13;10.27;;;4.40;1.00;;;;;;5009798;28;20062;-73
2024/03/08 06:47:37;;;;;;;13.35;9.40;;;4.40;1.00;;;;;;5010155;28;20045;-74
2024/03/08 06:50:05;;;;;;;13.10;9.88;;;4.40;1.00;;;;;;5014666;28;20057;-74
2024/03/08 06:52:33;;;;;;;11.60;8.70;;;4.50;99.90;;;;;;5007910;28;20049;-74
2024/03/08 06:55:01;;;;;;;11.65;8.65;;;4.40;99.90;;;;;;5018994;28;20053;-74
2024/03/08 06:57:29;;;;;;;12.25;8.45;;;4.50;99.90;;;;;;4995380;28;20054;-74
2024/03/08 06:59:59;;;;;;;12.00;9.18;;;4.50;99.90;;;;;;5008009;28;20133;-75
2024/03/08 07:02:27;;;;;;;10.77;8.27;;;4.50;99.90;;;;;;4999695;28;20089;-75
2024/03/08 07:04:54;;;;;;;10.05;7.97;;;4.60;99.90;;;;;;5016741;28;21283;-72
2024/03/08 07:07:21;;;;;;;11.05;8.18;;;4.60;99.90;;;;;;5002832;28;20394;-72
2024/03/08 07:09:49;;;;;;;13.30;8.80;;;4.70;99.90;;;;;;5000839;28;20385;-73
2024/03/08 07:12:16;;;;;;;10.95;8.32;;;4.70;99.90;;;;;;5005042;28;20130;-72
2024/03/08 07:14:45;;;;;;;14.15;10.85;;;4.70;99.90;;;;;;5006838;28;20527;-72
2024/03/08 07:17:12;;;;;;;11.73;8.63;;;4.70;99.90;;;;;;5007446;28;20057;-72
2024/03/08 07:19:39;;;;;;;12.95;10.18;;;4.80;73.40;;;;;;5008082;28;20572;-72
2024/03/08 07:22:08;;;;;;;12.45;8.85;;;4.80;1.00;;;;;;5009486;28;20042;-72
2024/03/08 07:27:21;;;;;;;12.52;9.48;;;4.90;99.90;;;;;;5007717;28;20216;-72
2024/03/08 07:29:48;;;;;;;10.75;8.05;;;4.90;99.90;;;;;;5009892;28;20398;-72
2024/03/08 07:32:20;;;;;;;11.45;8.57;;;5.00;99.90;;;;;;5005142;28;20072;-72
2024/03/08 07:34:51;;;;;;;10.63;7.85;;;5.00;99.90;;;;;;5020030;28;20050;-72
2024/03/08 07:37:19;;;;;;;12.32;8.52;;;5.10;99.90;;;;;;5014044;28;20073;-73
2024/03/08 07:39:46;;;;;;;9.43;7.07;;;5.10;2.60;;;;;;4991377;28;20129;-73
2024/03/08 07:42:13;;;;;;;15.90;10.55;;;5.10;1.00;;;;;;5009626;28;20496;-72
2024/03/08 07:44:40;;;;;;;15.05;11.38;;;5.20;1.00;;;;;;4994988;28;20217;-72
2024/03/08 07:47:09;;;;;;;15.75;11.15;;;5.20;99.90;;;;;;4997934;28;20060;-72
2024/03/08 07:49:39;;;;;;;16.15;12.82;;;5.20;99.90;;;;;;5001675;28;20243;-72
2024/03/08 07:52:07;;;;;;;20.63;13.98;;;5.30;99.90;;;;;;5000470;28;20453;-72
2024/03/08 07:54:35;;;;;;;17.58;12.68;;;5.30;99.90;;;;;;5019946;28;20136;-72
2024/03/08 07:57:03;;;;;;;14.80;11.65;;;5.40;71.60;;;;;;5017065;28;20306;-72
2024/03/08 07:59:30;;;;;;;15.82;11.35;;;5.40;1.00;;;;;;5008996;28;20049;-74
2024/03/08 08:01:57;;;;;;;16.88;11.50;;;5.50;1.00;;;;;;5009285;28;20064;-73
2024/03/08 08:04:24;;;;;;;16.15;11.65;;;5.60;1.00;;;;;;5021743;28;20042;-73
2024/03/08 08:06:51;;;;;;;15.63;11.57;;;5.60;99.90;;;;;;5019073;28;20049;-73
2024/03/08 08:09:28;;;;;;;15.43;9.60;;;5.60;99.90;;;;;;5017625;28;20058;-73
2024/03/08 08:11:55;;;;;;;15.98;11.52;;;5.70;99.90;;;;;;5000343;28;20501;-83
2024/03/08 08:14:22;;;;;;;15.23;10.75;;;5.70;99.90;;;;;;4988264;28;20057;-76
2024/03/08 08:16:52;;;;;;;13.48;11.00;;;5.80;99.90;;;;;;5009941;28;20049;-76
2024/03/08 08:19:20;;;;;;;18.13;14.07;;;5.80;2.00;;;;;;5002615;28;20060;-76
2024/03/08 08:21:47;;;;;;;18.80;14.15;;;5.90;1.00;;;;;;5012607;28;20129;-76
2024/03/08 08:24:14;;;;;;;20.33;13.68;;;5.90;1.00;;;;;;4992244;28;20046;-77
2024/03/08 08:26:41;;;;;;;15.15;11.55;;;5.90;1.00;;;;;;4999174;28;20053;-77
2024/03/08 08:29:08;;;;;;;18.38;13.38;;;6.00;1.00;;;;;;5011671;28;20077;-77
2024/03/08 08:31:36;;;;;;;17.92;12.82;;;6.10;1.00;;;;;;4979158;28;20417;-77
2024/03/08 08:34:04;;;;;;;14.18;11.20;;;6.10;99.90;;;;;;5018550;28;20057;-77
2024/03/08 08:36:31;;;;;;;13.32;10.30;;;6.20;99.90;;;;;;4994466;28;20053;-78
2024/03/08 08:38:59;;;;;;;16.38;11.30;;;6.20;99.90;;;;;;5017090;28;20050;-77
2024/03/08 08:41:27;;;;;;;13.85;10.32;;;6.30;99.90;;;;;;5000817;28;20057;-78
2024/03/08 08:43:54;;;;;;;21.17;14.05;;;6.30;99.90;;;;;;5013050;28;20532;-78
2024/03/08 08:46:40;;;;;;;16.10;12.57;;;6.40;99.90;;;;;;4984443;28;20050;-78
2024/03/08 08:49:10;;;;;;;14.77;11.77;;;6.40;99.90;;;;;;4994268;28;20099;-77
2024/03/08 08:51:38;;;;;;;13.45;10.50;;;6.40;99.90;;;;;;4991589;28;20053;-78
2024/03/08 08:54:06;;;;;;;14.30;11.40;;;6.50;99.90;;;;;;5000370;28;20054;-76
2024/03/08 08:56:37;;;;;;;15.13;11.88;;;6.60;99.90;;;;;;5018979;28;20049;-74
2024/03/08 08:59:04;;;;;;;15.07;11.88;;;6.60;99.90;;;;;;4984253;28;20388;-74
2024/03/08 09:01:31;;;;;;;15.13;12.65;;;6.70;99.90;;;;;;5003721;28;20539;-74
2024/03/08 09:03:58;;;;;;;15.52;12.20;;;6.70;99.90;;;;;;5011090;28;20049;-74
2024/03/08 09:06:27;;;;;;;21.13;16.20;;;6.80;99.90;;;;;;5012847;28;20712;-74
2024/03/08 09:08:53;;;;;;;16.38;13.27;;;6.80;99.90;;;;;;5014151;28;20495;-74
2024/03/08 09:11:20;;;;;;;17.58;12.32;;;6.80;99.90;;;;;;4999807;28;20104;-74
2024/03/08 09:13:48;;;;;;;17.83;13.43;;;6.90;99.90;;;;;;5018292;28;20057;-74
2024/03/08 09:16:15;;;;;;;16.23;13.00;;;7.00;99.90;;;;;;4987029;28;20058;-74
2024/03/08 09:18:42;;;;;;;15.55;12.13;;;7.00;99.90;;;;;;5006414;28;20061;-74
2024/03/08 09:21:09;;;;;;;14.65;12.13;;;7.10;99.90;;;;;;5004469;28;20054;-74
2024/03/08 09:23:37;;;;;;;12.85;10.25;;;7.20;95.30;;;;;;5008875;28;20045;-74
2024/03/08 09:26:04;;;;;;;15.27;11.93;;;7.30;91.60;;;;;;4994394;28;20076;-75
2024/03/08 09:28:39;;;;;;;11.73;10.00;;;7.40;87.90;;;;;;5006900;28;20065;-75
2024/03/08 09:31:07;;;;;;;18.35;13.15;;;7.40;83.40;;;;;;5009012;28;20443;-74
2024/03/08 09:33:34;;;;;;;15.85;12.80;;;7.50;65.20;;;;;;5007955;28;20123;-74
2024/03/08 09:36:03;;;;;;;14.90;12.13;;;7.60;57.70;;;;;;4985521;28;20053;-75
2024/03/08 09:38:30;;;;;;;13.32;10.85;;;7.60;48.40;;;;;;4999829;28;20054;-74
2024/03/08 09:40:57;;;;;;;12.48;9.63;;;7.70;45.90;;;;;;5001773;28;20123;-75
2024/03/08 09:43:24;;;;;;;13.02;9.98;;;7.80;45.20;;;;;;5012846;28;20049;-74
2024/03/08 09:45:51;;;;;;;12.75;10.68;;;7.90;52.80;;;;;;5012377;28;20437;-74
2024/03/08 09:48:18;;;;;;;11.63;10.05;;;8.00;29.80;;;;;;5006197;28;20042;-74
2024/03/08 09:50:46;;;;;;;12.48;9.88;;;8.20;23.40;;;;;;4991861;28;20495;-74
2024/03/08 09:53:12;;;;;;;11.30;9.52;;;8.20;20.10;;;;;;4995210;28;20536;-74
2024/03/08 09:55:42;;;;;;;11.65;9.65;;;8.30;23.10;;;;;;5014527;28;20405;-74
2024/03/08 10:00:57;;;;;;;11.57;10.18;;;8.40;5.80;;;;;;4999037;28;20056;-74
2024/03/08 10:03:26;;;;;;;11.32;9.23;;;8.50;1.60;;;;;;4988213;28;20116;-74
2024/03/08 10:06:00;;;;;;;9.27;7.95;;;8.50;1.00;;;;;;4972123;28;20045;-74
2024/03/08 10:08:30;;;;;;;10.20;8.98;;;8.60;1.00;;;;;;5003386;28;20085;-74
2024/03/08 10:10:58;;;;;;;15.57;11.05;;;8.70;1.00;;;;;;4986361;28;20524;-74
2024/03/08 10:13:27;;;;;;;14.55;11.90;;;8.70;1.00;;;;;;4999823;28;20103;-74
2024/03/08 10:15:54;;;;;;;14.48;12.38;;;8.70;1.00;;;;;;5001745;28;20049;-75
2024/03/08 10:18:22;;;;;;;16.95;12.98;;;8.80;1.00;;;;;;4982630;28;20054;-74
2024/03/08 10:21:03;;;;;;;15.13;13.43;;;8.80;1.00;;;;;;5002630;28;20053;-74
2024/03/08 10:23:31;;;;;;;15.40;12.77;;;8.90;1.00;;;;;;4998781;28;20057;-77
2024/03/08 10:26:18;;;;;;;16.30;12.93;;;8.90;1.00;;;;;;4987152;28;20045;-75
2024/03/08 10:28:47;;;;;;;16.17;12.38;;;8.80;1.00;;;;;;4987967;28;20053;-77
2024/03/08 10:31:15;;;;;;;16.38;12.95;;;8.90;1.00;;;;;;4998483;28;20147;-76
2024/03/08 10:33:49;;;;;;;14.25;12.48;;;8.80;1.00;;;;;;4997440;28;20497;-73
2024/03/08 10:36:16;;;;;;;13.15;10.65;;;8.90;1.00;;;;;;5003858;28;20610;-73
2024/03/08 10:38:46;;;;;;;14.90;12.35;;;8.90;1.00;;;;;;5015558;28;20127;-73
2024/03/08 10:41:16;;;;;;;14.77;12.93;;;8.90;1.00;;;;;;4998940;28;20499;-74
2024/03/08 10:44:06;;;;;;;12.68;10.73;;;9.00;1.00;;;;;;5009338;28;20057;-74
2024/03/08 10:46:41;;;;;;;16.42;13.25;;;9.10;1.00;;;;;;5000957;28;20487;-74
2024/03/08 10:49:12;;;;;;;16.55;13.68;;;9.30;1.00;;;;;;5011143;28;20456;-73
2024/03/08 10:51:40;;;;;;;16.73;13.02;;;9.30;1.00;;;;;;4984221;28;20057;-73
2024/03/08 10:54:10;;;;;;;17.75;14.13;;;9.30;1.00;;;;;;5008483;28;20229;-73
2024/03/08 10:56:39;;;;;;;16.05;14.25;;;9.30;1.00;;;;;;4997962;28;20201;-73
2024/03/08 10:59:08;;;;;;;16.77;12.93;;;9.30;1.00;;;;;;5016956;28;20042;-73
2024/03/08 11:01:36;;;;;;;12.95;11.20;;;9.30;1.00;;;;;;4983958;28;20057;-74
2024/03/08 11:04:06;;;;;;;14.20;12.25;;;9.40;1.00;;;;;;5009792;28;20061;-72
2024/03/08 11:06:39;;;;;;;15.02;12.13;;;9.50;1.00;;;;;;5014395;28;20200;-72
2024/03/08 11:09:18;;;;;;;13.30;10.95;;;9.50;1.00;;;;;;5011751;28;20329;-71
2024/03/08 11:11:45;;;;;;;13.10;11.45;;;9.50;1.00;;;;;;4997459;28;20539;-71
2024/03/08 11:14:44;;;;;;;13.88;10.80;;;9.60;1.00;;;;;;5011411;28;20314;-71
2024/03/08 11:17:10;;;;;;;14.73;11.93;;;9.70;1.00;;;;;;4986275;28;20083;-72
2024/03/08 11:19:40;;;;;;;13.90;11.70;;;9.90;1.00;;;;;;5016983;28;20046;-72
2024/03/08 11:22:10;;;;;;;15.25;13.02;;;9.90;1.00;;;;;;4983171;28;20573;-72
2024/03/08 11:24:40;;;;;;;14.77;12.68;;;9.90;1.00;;;;;;5001586;28;20050;-72
2024/03/08 11:27:07;;;;;;;14.57;12.45;;;9.90;1.00;;;;;;5018385;28;20056;-72
2024/03/08 11:29:37;;;;;;;13.48;11.20;;;9.90;1.00;;;;;;5013343;28;20057;-72
2024/03/08 11:32:11;;;;;;;12.13;10.38;;;10.00;1.00;;;;;;4995974;28;20416;-72
2024/03/08 11:34:43;;;;;;;11.02;9.70;;;10.20;1.00;;;;;;5001062;28;20297;-72
2024/03/08 11:37:14;;;;;;;11.05;9.20;;;10.40;1.00;;;;;;4999699;28;20428;-74
2024/03/08 11:39:51;;;;;;;15.48;11.55;;;10.50;1.00;;;;;;5001455;28;20319;-73
2024/03/08 11:42:19;;;;;;;13.15;11.75;;;10.40;1.00;;;;;;5013252;28;20593;-72
2024/03/08 11:44:47;;;;;;;12.50;10.90;;;10.40;1.00;;;;;;5013910;28;20053;-72
2024/03/08 11:47:15;;;;;;;15.73;13.13;;;10.50;1.00;;;;;;5003416;28;20465;-72
2024/03/08 11:49:44;;;;;;;14.18;11.30;;;10.40;1.00;;;;;;5004262;28;20140;-72
2024/03/08 11:52:14;;;;;;;14.55;12.95;;;10.40;1.00;;;;;;5010056;28;20484;-72
2024/03/08 11:54:41;;;;;;;13.38;11.95;;;10.50;1.00;;;;;;5009992;28;20141;-71
2024/03/08 11:57:09;;;;;;;12.20;10.20;;;10.60;1.00;;;;;;4990843;28;20076;-72
2024/03/08 11:59:36;;;;;;;13.15;11.38;;;10.80;1.00;;;;;;4986411;28;20084;-72
2024/03/08 12:02:06;;;;;;;12.45;10.40;;;11.00;1.00;;;;;;5007460;28;20646;-72
2024/03/08 12:04:35;;;;;;;12.52;11.15;;;11.00;1.00;;;;;;5008831;28;20505;-72
2024/03/08 12:07:08;;;;;;;13.65;10.82;;;10.90;1.00;;;;;;5008824;28;20530;-72
2024/03/08 12:09:39;;;;;;;12.88;11.57;;;10.90;1.00;;;;;;5010058;28;20049;-73
2024/03/08 12:12:07;;;;;;;14.00;12.60;;;11.00;1.00;;;;;;5005307;28;20477;-73
2024/03/08 12:14:34;;;;;;;14.05;12.65;;;11.00;1.00;;;;;;4999199;28;20057;-73
2024/03/08 12:17:01;;;;;;;13.23;11.93;;;11.00;1.00;;;;;;5009449;28;20050;-73
2024/03/08 12:19:28;;;;;;;15.32;13.07;;;11.20;1.00;;;;;;5017060;28;20356;-73
2024/03/08 12:21:56;;;;;;;12.75;11.45;;;11.20;1.00;;;;;;5014144;28;20137;-73
2024/03/08 12:24:23;;;;;;;14.32;12.88;;;11.20;1.00;;;;;;5016641;28;20057;-73
2024/03/08 12:26:50;;;;;;;17.20;14.15;;;11.10;1.00;;;;;;5001708;28;20050;-73
2024/03/08 12:29:24;;;;;;;14.13;12.68;;;10.90;1.00;;;;;;5005218;28;20089;-73
2024/03/08 12:31:53;;;;;;;14.70;13.13;;;11.00;1.00;;;;;;5004356;28;20053;-73
2024/03/08 12:34:20;;;;;;;12.27;10.98;;;11.00;1.00;;;;;;5009081;28;20060;-73
2024/03/08 12:36:54;;;;;;;13.88;11.55;;;11.10;1.00;;;;;;4991671;28;20356;-73
2024/03/08 12:39:27;;;;;;;13.77;12.38;;;11.40;1.00;;;;;;5006972;28;20056;-73
2024/03/08 12:41:56;;;;;;;14.07;12.02;;;11.70;1.00;;;;;;5007467;28;20593;-73
2024/03/08 12:44:24;;;;;;;13.10;11.77;;;11.70;1.00;;;;;;5012787;28;20049;-73
2024/03/08 12:46:53;;;;;;;15.90;14.15;;;11.40;1.00;;;;;;5008043;28;20081;-73
2024/03/08 12:49:23;;;;;;;12.43;11.23;;;11.30;1.00;;;;;;5007443;28;20046;-73
2024/03/08 12:51:52;;;;;;;14.90;13.38;;;11.40;1.00;;;;;;5012718;28;20416;-73
2024/03/08 12:54:23;;;;;;;15.05;13.45;;;11.30;1.00;;;;;;5010742;28;20048;-74
2024/03/08 12:56:53;;;;;;;15.73;13.88;;;11.50;1.00;;;;;;5006790;28;20465;-73
2024/03/08 12:59:21;;;;;;;14.18;12.77;;;11.40;1.00;;;;;;5012327;28;20205;-73
2024/03/08 13:01:50;;;;;;;13.55;12.25;;;11.80;1.00;;;;;;5011799;28;20141;-73
2024/03/08 13:04:18;;;;;;;12.88;11.57;;;12.20;1.00;;;;;;5010986;28;20045;-73
2024/03/08 13:06:48;;;;;;;13.75;12.40;;;12.40;1.00;;;;;;5008306;28;20057;-73
2024/03/08 13:09:19;;;;;;;12.77;11.48;;;12.20;1.00;;;;;;5011268;28;20049;-73
2024/03/08 13:11:46;;;;;;;12.23;11.02;;;12.30;1.00;;;;;;5010105;28;20111;-73
2024/03/08 13:14:13;;;;;;;13.05;11.75;;;12.30;1.00;;;;;;5010637;28;20041;-73
2024/03/08 13:16:40;;;;;;;12.65;11.35;;;12.60;1.00;;;;;;5009950;28;20518;-73